Time;durP1;ratioP1;P1;durP2;ratioP2;P2;SDS_P1;SDS_P2;PMS_P1;PMS_P2;Temp;Humidity;BMP_temperature;BMP_pressure;BME280_temperature;BME280_humidity;BME280_pressure;Samples;Min_cycle;Max_cycle;Signal;HPM_P1;HPM_P2
2022/12/02 00:03:16;;;;;;;;;;;;;;;;;;10461025;28;19951;-64
2022/12/02 00:08:18;;;;;;;;;;;;;;;;;;10460395;28;19925;-64
2022/12/02 00:13:21;;;;;;;;;;;;;;;;;;10460687;28;19925;-64
2022/12/02 00:18:23;;;;;;;;;;;;;;;;;;10458460;28;19936;-64
2022/12/02 00:23:25;;;;;;;;;;;;;;;;;;10460276;28;19932;-64
2022/12/02 00:28:27;;;;;;;;;;;;;;;;;;10458984;28;20363;-64
2022/12/02 00:33:29;;;;;;;;;;;;;;;;;;10460042;28;19964;-64
2022/12/02 00:38:32;;;;;;;;;;;;;;;;;;10459508;28;19971;-64
2022/12/02 00:48:54;;;;;;;;;;;;;;;;;;10459002;28;19932;-64
2022/12/02 00:53:57;;;;;;;;;;;;;;;;;;10458214;28;19947;-64
2022/12/02 00:58:59;;;;;;;;;;;;;;;;;;10458265;28;20299;-64
2022/12/02 01:04:01;;;;;;;;;;;;;;;;;;10458477;28;19925;-64
2022/12/02 01:09:03;;;;;;;;;;;;;;;;;;10457879;28;20332;-64
2022/12/02 01:14:05;;;;;;;;;;;;;;;;;;10458457;28;19929;-64
2022/12/02 01:19:07;;;;;;;;;;;;;;;;;;10457819;28;19925;-64
2022/12/02 01:24:09;;;;;;;;;;;;;;;;;;10457677;28;19951;-64
2022/12/02 01:29:11;;;;;;;;;;;;;;;;;;10456938;28;20387;-64
2022/12/02 01:34:13;;;;;;;;;;;;;;;;;;10457609;28;19932;-64
2022/12/02 01:39:15;;;;;;;;;;;;;;;;;;10457320;28;19929;-64
2022/12/02 01:44:17;;;;;;;;;;;;;;;;;;10456893;28;20310;-64
2022/12/02 01:49:19;;;;;;;;;;;;;;;;;;10457389;28;19971;-64
2022/12/02 01:54:21;;;;;;;;;;;;;;;;;;10457080;28;19933;-64
2022/12/02 01:59:23;;;;;;;;;;;;;;;;;;10456255;28;19925;-64
2022/12/02 02:04:25;;;;;;;;;;;;;;;;;;10457139;28;19939;-64
2022/12/02 02:09:27;;;;;;;;;;;;;;;;;;10456933;28;19929;-64
2022/12/02 02:14:29;;;;;;;;;;;;;;;;;;10456530;28;19924;-64
2022/12/02 02:19:31;;;;;;;;;;;;;;;;;;10456204;28;19929;-64
2022/12/02 02:24:33;;;;;;;;;;;;;;;;;;10456735;28;19925;-64
2022/12/02 02:29:35;;;;;;;;;;;;;;;;;;10456526;28;19925;-64
2022/12/02 02:34:37;;;;;;;;;;;;;;;;;;10455635;28;19995;-64
2022/12/02 02:39:39;;;;;;;;;;;;;;;;;;10459911;28;19924;-64
2022/12/02 02:44:41;;;;;;;;;;;;;;;;;;10463166;28;20384;-64
2022/12/02 02:49:43;;;;;;;;;;;;;;;;;;10445907;28;19932;-64
2022/12/02 02:54:45;;;;;;;;;;;;;;;;;;10462767;28;20421;-64
2022/12/02 02:59:47;;;;;;;;;;;;;;;;;;10445933;28;19925;-64
2022/12/02 03:04:49;;;;;;;;;;;;;;;;;;10462791;28;20391;-64
2022/12/02 03:09:52;;;;;;;;;;;;;;;;;;10462745;28;19933;-64
2022/12/02 03:14:54;;;;;;;;;;;;;;;;;;10462201;28;19951;-64
2022/12/02 03:19:56;;;;;;;;;;;;;;;;;;10461806;28;19925;-65
2022/12/02 03:24:58;;;;;;;;;;;;;;;;;;10462360;28;19979;-64
2022/12/02 03:30:00;;;;;;;;;;;;;;;;;;10462198;28;19925;-64
2022/12/02 03:35:02;;;;;;;;;;;;;;;;;;10461377;28;19986;-64
2022/12/02 03:40:04;;;;;;;;;;;;;;;;;;10462064;28;19929;-64
2022/12/02 03:45:06;;;;;;;;;;;;;;;;;;10461584;28;19925;-64
2022/12/02 03:50:08;;;;;;;;;;;;;;;;;;10460487;28;20287;-64
2022/12/02 03:55:10;;;;;;;;;;;;;;;;;;10460811;28;20007;-64
2022/12/02 04:00:12;;;;;;;;;;;;;;;;;;10461014;28;19979;-64
2022/12/02 04:05:17;;;;;;;;;;;;;;;;;;10460408;28;19925;-64
2022/12/02 04:10:19;;;;;;;;;;;;;;;;;;10460285;28;19924;-64
2022/12/02 04:15:21;;;;;;;;;;;;;;;;;;10459997;28;20273;-64
2022/12/02 04:20:23;;;;;;;;;;;;;;;;;;10459754;28;19970;-64
2022/12/02 04:25:25;;;;;;;;;;;;;;;;;;10459907;28;19979;-64
2022/12/02 04:30:27;;;;;;;;;;;;;;;;;;10459960;28;19925;-64
2022/12/02 04:35:29;;;;;;;;;;;;;;;;;;10459854;28;19924;-64
2022/12/02 04:40:31;;;;;;;;;;;;;;;;;;10458725;28;19951;-64
2022/12/02 04:45:33;;;;;;;;;;;;;;;;;;10459084;28;19929;-64
2022/12/02 04:50:35;;;;;;;;;;;;;;;;;;10459257;28;19928;-64
2022/12/02 04:55:37;;;;;;;;;;;;;;;;;;10458874;28;19970;-64
2022/12/02 05:00:39;;;;;;;;;;;;;;;;;;10457790;28;20330;-64
2022/12/02 05:05:41;;;;;;;;;;;;;;;;;;10458540;28;19928;-64
2022/12/02 05:10:44;;;;;;;;;;;;;;;;;;10458460;28;19974;-64
2022/12/02 05:15:46;;;;;;;;;;;;;;;;;;10458341;28;19971;-64
2022/12/02 05:20:48;;;;;;;;;;;;;;;;;;10457199;28;20300;-64
2022/12/02 05:25:50;;;;;;;;;;;;;;;;;;10457371;28;19925;-64
2022/12/02 05:30:52;;;;;;;;;;;;;;;;;;10457817;28;19925;-64
2022/12/02 05:35:54;;;;;;;;;;;;;;;;;;10457209;28;19935;-64
2022/12/02 05:40:56;;;;;;;;;;;;;;;;;;10431200;28;19928;-64
2022/12/02 05:45:59;;;;;;;;;;;;;;;;;;10457488;28;19929;-64
2022/12/02 05:51:01;;;;;;;;;;;;;;;;;;10455470;28;19924;-64
2022/12/02 05:56:03;;;;;;;;;;;;;;;;;;10457038;28;19924;-64
2022/12/02 06:01:05;;;;;;;;;;;;;;;;;;10456286;28;19975;-64
2022/12/02 06:06:07;;;;;;;;;;;;;;;;;;10457061;28;19975;-64
2022/12/02 06:11:09;;;;;;;;;;;;;;;;;;10456552;28;19932;-64
2022/12/02 06:16:11;;;;;;;;;;;;;;;;;;10461941;28;19925;-64
2022/12/02 06:21:13;;;;;;;;;;;;;;;;;;10464532;28;20008;-64
2022/12/02 06:26:15;;;;;;;;;;;;;;;;;;10464307;28;20438;-64
2022/12/02 06:31:17;;;;;;;;;;;;;;;;;;10464672;28;19932;-64
2022/12/02 06:36:19;;;;;;;;;;;;;;;;;;10464550;28;20011;-64
2022/12/02 06:41:21;;;;;;;;;;;;;;;;;;10464446;28;19925;-64
2022/12/02 06:46:23;;;;;;;;;;;;;;;;;;10463597;28;20322;-64
2022/12/02 06:51:25;;;;;;;;;;;;;;;;;;10463302;28;20249;-64
2022/12/02 06:56:27;;;;;;;;;;;;;;;;;;10463811;28;19932;-64
2022/12/02 07:01:30;;;;;;;;;;;;;;;;;;10462994;28;19924;-64
2022/12/02 07:06:32;;;;;;;;;;;;;;;;;;10463388;28;19924;-64
2022/12/02 07:11:49;;;;;;;;;;;;;;;;;;10462505;28;19975;-64
2022/12/02 07:16:52;;;;;;;;;;;;;;;;;;10462347;28;20035;-64
2022/12/02 07:21:54;;;;;;;;;;;;;;;;;;10462021;28;19925;-64
2022/12/02 07:26:56;;;;;;;;;;;;;;;;;;10462062;28;19982;-64
2022/12/02 07:32:03;;;;;;;;;;;;;;;;;;10461732;28;19931;-64
2022/12/02 07:37:05;;;;;;;;;;;;;;;;;;10462198;28;19929;-64
2022/12/02 07:42:07;;;;;;;;;;;;;;;;;;10462009;28;19929;-64
2022/12/02 07:47:09;;;;;;;;;;;;;;;;;;10461142;28;19925;-64
2022/12/02 07:52:11;;;;;;;;;;;;;;;;;;10460909;28;19925;-64
2022/12/02 07:57:13;;;;;;;;;;;;;;;;;;10443683;28;19931;-64
2022/12/02 08:02:15;;;;;;;;;;;;;;;;;;10460602;28;19991;-64
2022/12/02 08:07:17;;;;;;;;;;;;;;;;;;10460352;28;19932;-64
2022/12/02 08:12:19;;;;;;;;;;;;;;;;;;10460757;28;19975;-64
2022/12/02 08:17:21;;;;;;;;;;;;;;;;;;10459986;28;20323;-64
2022/12/02 08:22:23;;;;;;;;;;;;;;;;;;10459773;28;19943;-64
2022/12/02 08:27:25;;;;;;;;;;;;;;;;;;10460232;28;19932;-64
2022/12/02 08:32:28;;;;;;;;;;;;;;;;;;10459396;28;20371;-64
2022/12/02 08:37:30;;;;;;;;;;;;;;;;;;10458974;28;19978;-64
2022/12/02 08:42:32;;;;;;;;;;;;;;;;;;10459661;28;19924;-64
2022/12/02 08:47:34;;;;;;;;;;;;;;;;;;10459463;28;19929;-64
2022/12/02 08:52:36;;;;;;;;;;;;;;;;;;10459196;28;19933;-64
2022/12/02 08:57:38;;;;;;;;;;;;;;;;;;10458449;28;20334;-64
2022/12/02 09:02:40;;;;;;;;;;;;;;;;;;10458293;28;19925;-64
2022/12/02 09:07:42;;;;;;;;;;;;;;;;;;10458731;28;20019;-64
2022/12/02 09:12:44;;;;;;;;;;;;;;;;;;10458452;28;19968;-64
2022/12/02 09:17:46;;;;;;;;;;;;;;;;;;10457450;28;20343;-65
2022/12/02 09:22:48;;;;;;;;;;;;;;;;;;10458272;28;19933;-64
2022/12/02 09:27:50;;;;;;;;;;;;;;;;;;10457486;28;19925;-64
2022/12/02 09:32:52;;;;;;;;;;;;;;;;;;10465532;22;19925;-63
2022/12/02 09:37:54;;;;;;;;;;;;;;;;;;10457208;28;20330;-63
2022/12/02 09:42:56;;;;;;;;;;;;;;;;;;10457723;28;19925;-63
2022/12/02 09:47:58;;;;;;;;;;;;;;;;;;10457432;28;19925;-63
2022/12/02 09:53:01;;;;;;;;;;;;;;;;;;10456354;28;19925;-63
2022/12/02 09:58:03;;;;;;;;;;;;;;;;;;10457351;28;19929;-63
2022/12/02 10:03:05;;;;;;;;;;;;;;;;;;10457301;28;19979;-63
2022/12/02 10:08:07;;;;;;;;;;;;;;;;;;10456571;28;20303;-63
2022/12/02 10:13:09;;;;;;;;;;;;;;;;;;10457014;28;19924;-63
2022/12/02 10:18:11;;;;;;;;;;;;;;;;;;10456982;28;19925;-63
2022/12/02 10:23:13;;;;;;;;;;;;;;;;;;10456210;28;20384;-63
2022/12/02 10:28:15;;;;;;;;;;;;;;;;;;10456200;28;20376;-63
2022/12/02 10:33:17;;;;;;;;;;;;;;;;;;10454982;28;19928;-63
2022/12/02 10:38:19;;;;;;;;;;;;;;;;;;10456569;28;19943;-63
2022/12/02 10:43:21;;;;;;;;;;;;;;;;;;10455841;28;20359;-63
2022/12/02 10:48:23;;;;;;;;;;;;;;;;;;10456365;28;19928;-64
2022/12/02 10:53:25;;;;;;;;;;;;;;;;;;10456278;28;19928;-63
2022/12/02 10:58:28;;;;;;;;;;;;;;;;;;10456259;28;19929;-63
2022/12/02 11:03:30;;;;;;;;;;;;;;;;;;10462999;28;20375;-63
2022/12/02 11:08:32;;;;;;;;;;;;;;;;;;10462800;28;19931;-63
2022/12/02 11:13:34;;;;;;;;;;;;;;;;;;10463114;28;19925;-63
2022/12/02 11:18:36;;;;;;;;;;;;;;;;;;10463027;28;19925;-63
2022/12/02 11:23:38;;;;;;;;;;;;;;;;;;10461068;28;19932;-63
2022/12/02 11:28:40;;;;;;;;;;;;;;;;;;10462107;28;20375;-63
2022/12/02 11:33:42;;;;;;;;;;;;;;;;;;10462175;28;19971;-63
2022/12/02 11:38:45;;;;;;;;;;;;;;;;;;10462251;28;19929;-63
2022/12/02 11:43:47;;;;;;;;;;;;;;;;;;10462101;28;19925;-63
2022/12/02 11:48:49;;;;;;;;;;;;;;;;;;10461884;28;19924;-63
2022/12/02 11:53:51;;;;;;;;;;;;;;;;;;10461714;28;19924;-63
2022/12/02 11:58:53;;;;;;;;;;;;;;;;;;10461480;28;19925;-63
2022/12/02 12:03:55;;;;;;;;;;;;;;;;;;10461264;28;20003;-63
2022/12/02 12:08:57;;;;;;;;;;;;;;;;;;10460467;28;19986;-63
2022/12/02 12:13:59;;;;;;;;;;;;;;;;;;10460756;28;19933;-63
2022/12/02 12:19:01;;;;;;;;;;;;;;;;;;10460723;28;19974;-63
2022/12/02 12:24:05;;;;;;;;;;;;;;;;;;10460658;28;19924;-63
2022/12/02 12:29:07;;;;;;;;;;;;;;;;;;10460235;28;20084;-64
2022/12/02 12:34:10;;;;;;;;;;;;;;;;;;10459634;28;19924;-63
2022/12/02 12:39:12;;;;;;;;;;;;;;;;;;10459241;28;19971;-63
2022/12/02 12:44:14;;;;;;;;;;;;;;;;;;10459645;28;19929;-63
2022/12/02 12:49:16;;;;;;;;;;;;;;;;;;10459440;28;19952;-63
2022/12/02 12:54:18;;;;;;;;;;;;;;;;;;10459252;28;20019;-63
2022/12/02 12:59:20;;;;;;;;;;;;;;;;;;10458457;28;19928;-63
2022/12/02 13:04:22;;;;;;;;;;;;;;;;;;10459105;28;19925;-63
2022/12/02 13:09:24;;;;;;;;;;;;;;;;;;10458652;28;19971;-63
2022/12/02 13:14:27;;;;;;;;;;;;;;;;;;10458519;28;19934;-63
2022/12/02 13:19:29;;;;;;;;;;;;;;;;;;10458411;28;19955;-63
2022/12/02 13:24:31;;;;;;;;;;;;;;;;;;10457189;28;19925;-63
2022/12/02 13:29:34;;;;;;;;;;;;;;;;;;10456284;28;19924;-63
2022/12/02 13:34:36;;;;;;;;;;;;;;;;;;10457476;28;19924;-63
2022/12/02 13:39:38;;;;;;;;;;;;;;;;;;10457808;28;19928;-64
2022/12/02 13:44:41;;;;;;;;;;;;;;;;;;10457000;28;19925;-63
2022/12/02 13:49:43;;;;;;;;;;;;;;;;;;10456844;28;19925;-63
2022/12/02 13:54:45;;;;;;;;;;;;;;;;;;10457456;28;19932;-63
2022/12/02 13:59:47;;;;;;;;;;;;;;;;;;10456848;28;19974;-64
2022/12/02 14:04:49;;;;;;;;;;;;;;;;;;10457358;28;19929;-63
2022/12/02 14:09:51;;;;;;;;;;;;;;;;;;10456460;28;19932;-63
2022/12/02 14:14:53;;;;;;;;;;;;;;;;;;10456969;28;19971;-63
2022/12/02 14:19:55;;;;;;;;;;;;;;;;;;10457004;28;19932;-64
2022/12/02 14:24:57;;;;;;;;;;;;;;;;;;10456217;28;20429;-64
2022/12/02 14:29:59;;;;;;;;;;;;;;;;;;10456693;28;19925;-64
2022/12/02 14:35:02;;;;;;;;;;;;;;;;;;10458572;28;19931;-64
2022/12/02 14:40:04;;;;;;;;;;;;;;;;;;10463947;28;19925;-64
2022/12/02 14:45:06;;;;;;;;;;;;;;;;;;10464384;28;19971;-64
2022/12/02 14:50:08;;;;;;;;;;;;;;;;;;10463518;28;20391;-64
2022/12/02 14:55:10;;;;;;;;;;;;;;;;;;10463311;28;19964;-63
2022/12/02 15:00:12;;;;;;;;;;;;;;;;;;10463797;28;19924;-63
2022/12/02 15:05:14;;;;;;;;;;;;;;;;;;10462977;28;20453;-63
2022/12/02 15:10:16;;;;;;;;;;;;;;;;;;10462787;28;19928;-63
2022/12/02 15:15:18;;;;;;;;;;;;;;;;;;10463220;28;19933;-64
2022/12/02 15:20:40;;;;;;;;;;;;;;;;;;10462316;28;20346;-63
2022/12/02 15:25:42;;;;;;;;;;;;;;;;;;10462804;28;19932;-63
2022/12/02 15:30:44;;;;;;;;;;;;;;;;;;10461967;28;19986;-64
2022/12/02 15:35:46;;;;;;;;;;;;;;;;;;10461862;28;19925;-63
2022/12/02 15:40:49;;;;;;;;;;;;;;;;;;10462235;28;19982;-64
2022/12/02 15:45:51;;;;;;;;;;;;;;;;;;10461635;28;19931;-63
2022/12/02 15:50:53;;;;;;;;;;;;;;;;;;10461760;28;19924;-64
2022/12/02 15:55:56;;;;;;;;;;;;;;;;;;10460985;28;19925;-64
2022/12/02 16:00:58;;;;;;;;;;;;;;;;;;10461499;28;19932;-63
2022/12/02 16:06:00;;;;;;;;;;;;;;;;;;10460611;28;19925;-63
2022/12/02 16:11:02;;;;;;;;;;;;;;;;;;10460366;28;20284;-63
2022/12/02 16:16:05;;;;;;;;;;;;;;;;;;10459669;28;19956;-64
2022/12/02 16:21:07;;;;;;;;;;;;;;;;;;10460016;28;20288;-63
2022/12/02 16:26:10;;;;;;;;;;;;;;;;;;10460392;28;19936;-63
2022/12/02 16:31:12;;;;;;;;;;;;;;;;;;10460142;28;19925;-63
2022/12/02 16:36:14;;;;;;;;;;;;;;;;;;10459187;28;19925;-63
2022/12/02 16:41:16;;;;;;;;;;;;;;;;;;10459903;28;19925;-63
2022/12/02 16:46:18;;;;;;;;;;;;;;;;;;10458949;28;20379;-63
2022/12/02 16:51:21;;;;;;;;;;;;;;;;;;10458193;28;19932;-63
2022/12/02 16:56:23;;;;;;;;;;;;;;;;;;10458585;28;19925;-64
2022/12/02 17:01:26;;;;;;;;;;;;;;;;;;10459252;28;19928;-64
2022/12/02 17:06:28;;;;;;;;;;;;;;;;;;10458888;28;19925;-64
2022/12/02 17:11:30;;;;;;;;;;;;;;;;;;10458041;28;20319;-64
2022/12/02 17:16:32;;;;;;;;;;;;;;;;;;10458524;28;19971;-64
2022/12/02 17:21:34;;;;;;;;;;;;;;;;;;10457977;28;19964;-64
2022/12/02 17:26:36;;;;;;;;;;;;;;;;;;10458412;28;19925;-63
2022/12/02 17:31:38;;;;;;;;;;;;;;;;;;10458002;28;19929;-63
2022/12/02 17:36:40;;;;;;;;;;;;;;;;;;10456987;28;20434;-63
2022/12/02 17:41:43;;;;;;;;;;;;;;;;;;10457163;28;19925;-64
2022/12/02 17:46:47;;;;;;;;;;;;;;;;;;10457793;28;19929;-63
2022/12/02 17:51:49;;;;;;;;;;;;;;;;;;10456814;28;20453;-63
2022/12/02 17:57:11;;;;;;;;;;;;;;;;;;10457700;28;19925;-63
2022/12/02 18:02:13;;;;;;;;;;;;;;;;;;10456701;28;20265;-63
2022/12/02 18:07:15;;;;;;;;;;;;;;;;;;10455421;28;20371;-63
2022/12/02 18:12:17;;;;;;;;;;;;;;;;;;10464741;28;19925;-63
2022/12/02 18:17:19;;;;;;;;;;;;;;;;;;10465480;28;19929;-64
2022/12/02 18:22:21;;;;;;;;;;;;;;;;;;10465311;28;19924;-63
2022/12/02 18:27:24;;;;;;;;;;;;;;;;;;10465076;28;19924;-64
2022/12/02 18:32:26;;;;;;;;;;;;;;;;;;10464869;28;19925;-64
2022/12/02 18:37:28;;;;;;;;;;;;;;;;;;10463041;28;19925;-63
2022/12/02 18:42:31;;;;;;;;;;;;;;;;;;10464343;28;19925;-64
2022/12/02 18:47:33;;;;;;;;;;;;;;;;;;10464133;28;19924;-64
2022/12/02 18:52:35;;;;;;;;;;;;;;;;;;10463107;28;19928;-64
2022/12/02 18:57:37;;;;;;;;;;;;;;;;;;10463042;28;20486;-64
2022/12/02 19:02:39;;;;;;;;;;;;;;;;;;10463674;28;19959;-64
2022/12/02 19:07:41;;;;;;;;;;;;;;;;;;10462933;28;20364;-63
2022/12/02 19:12:43;;;;;;;;;;;;;;;;;;10463334;28;20012;-63
2022/12/02 19:17:45;;;;;;;;;;;;;;;;;;10462545;28;19941;-63
2022/12/02 19:22:47;;;;;;;;;;;;;;;;;;10460955;28;20323;-63
2022/12/02 19:27:49;;;;;;;;;;;;;;;;;;10462943;28;19936;-64
2022/12/02 19:32:59;;;;;;;;;;;;;;;;;;10461908;28;19933;-63
2022/12/02 19:38:01;;;;;;;;;;;;;;;;;;10461277;28;19931;-64
2022/12/02 19:43:08;;;;;;;;;;;;;;;;;;10461648;28;20033;-64
2022/12/02 19:48:10;;;;;;;;;;;;;;;;;;10461520;28;19970;-64
2022/12/02 19:53:12;;;;;;;;;;;;;;;;;;10461861;28;19932;-64
2022/12/02 19:58:14;;;;;;;;;;;;;;;;;;10443290;28;20395;-64
2022/12/02 20:03:17;;;;;;;;;;;;;;;;;;10460332;28;19955;-64
2022/12/02 20:08:19;;;;;;;;;;;;;;;;;;10460966;28;20023;-64
2022/12/02 20:13:21;;;;;;;;;;;;;;;;;;10460652;28;19924;-64
2022/12/02 20:18:23;;;;;;;;;;;;;;;;;;10460766;28;19925;-63
2022/12/02 20:23:25;;;;;;;;;;;;;;;;;;10460647;28;19924;-63
2022/12/02 20:28:27;;;;;;;;;;;;;;;;;;10459487;28;20372;-63
2022/12/02 20:33:29;;;;;;;;;;;;;;;;;;10458898;28;19943;-64
2022/12/02 20:38:31;;;;;;;;;;;;;;;;;;10459187;28;20319;-63
2022/12/02 20:43:33;;;;;;;;;;;;;;;;;;10458845;28;19929;-63
2022/12/02 20:48:35;;;;;;;;;;;;;;;;;;10459327;28;19970;-63
2022/12/02 20:53:38;;;;;;;;;;;;;;;;;;10459376;28;19925;-63
2022/12/02 20:58:41;;;;;;;;;;;;;;;;;;10458557;28;20201;-64
2022/12/02 21:03:44;;;;;;;;;;;;;;;;;;10458131;28;19931;-64
2022/12/02 21:08:46;;;;;;;;;;;;;;;;;;10458513;28;19971;-64
2022/12/02 21:13:49;;;;;;;;;;;;;;;;;;10458664;28;19959;-64
2022/12/02 21:18:51;;;;;;;;;;;;;;;;;;10458457;28;19925;-64
2022/12/02 21:23:53;;;;;;;;;;;;;;;;;;10457906;28;20413;-64
2022/12/02 21:29:01;;;;;;;;;;;;;;;;;;10458249;28;19929;-63
2022/12/02 21:34:03;;;;;;;;;;;;;;;;;;10457308;28;20509;-64
2022/12/02 21:39:05;;;;;;;;;;;;;;;;;;10457060;28;19924;-63
2022/12/02 21:44:07;;;;;;;;;;;;;;;;;;10457375;28;19970;-63
2022/12/02 21:49:09;;;;;;;;;;;;;;;;;;10457099;22;19925;-72
2022/12/02 21:54:11;;;;;;;;;;;;;;;;;;10457219;28;19931;-72
2022/12/02 21:59:13;;;;;;;;;;;;;;;;;;10456816;28;20421;-73
2022/12/02 22:04:15;;;;;;;;;;;;;;;;;;10457035;28;19925;-72
2022/12/02 22:09:18;;;;;;;;;;;;;;;;;;10417614;28;19933;-72
2022/12/02 22:14:20;;;;;;;;;;;;;;;;;;10437088;28;19931;-72
2022/12/02 22:19:22;;;;;;;;;;;;;;;;;;10455746;28;19932;-72
2022/12/02 22:24:24;;;;;;;;;;;;;;;;;;10456420;28;19928;-72
2022/12/02 22:29:26;;;;;;;;;;;;;;;;;;10456827;28;19925;-72
2022/12/02 22:34:28;;;;;;;;;;;;;;;;;;10437810;28;19925;-72
2022/12/02 22:39:30;;;;;;;;;;;;;;;;;;10415510;28;19929;-72
2022/12/02 22:44:32;;;;;;;;;;;;;;;;;;10415316;28;19925;-72
2022/12/02 22:49:34;;;;;;;;;;;;;;;;;;10435616;28;20371;-72
2022/12/02 22:54:36;;;;;;;;;;;;;;;;;;10434276;28;20335;-73
2022/12/02 22:59:38;;;;;;;;;;;;;;;;;;10453978;28;20331;-72
2022/12/02 23:04:40;;;;;;;;;;;;;;;;;;10422812;28;19936;-72
2022/12/02 23:09:42;;;;;;;;;;;;;;;;;;10421716;28;19929;-72
2022/12/02 23:14:44;;;;;;;;;;;;;;;;;;10437721;28;19931;-72
2022/12/02 23:19:46;;;;;;;;;;;;;;;;;;10462557;28;19925;-72
2022/12/02 23:25:14;;;;;;;;;;;;;;;;;;10463128;28;20344;-72
2022/12/02 23:30:16;;;;;;;;;;;;;;;;;;10462201;28;19925;-72
2022/12/02 23:35:18;;;;;;;;;;;;;;;;;;10462543;28;19951;-72
2022/12/02 23:40:20;;;;;;;;;;;;;;;;;;10462349;28;19928;-72
2022/12/02 23:45:22;;;;;;;;;;;;;;;;;;10458601;28;20016;-72
2022/12/02 23:50:24;;;;;;;;;;;;;;;;;;10461605;28;19925;-72
2022/12/02 23:55:26;;;;;;;;;;;;;;;;;;10461724;28;19924;-72
